createdAt,value
2019-05-18T00:01:04.279Z,10.1
2019-05-18T00:06:36.819Z,10.2
2019-05-18T00:12:09.435Z,10.2
2019-05-18T00:17:41.962Z,10.2
2019-05-18T00:23:14.584Z,10.2
2019-05-18T00:28:47.124Z,10.3
2019-05-18T00:34:19.764Z,10.3
2019-05-18T00:39:52.274Z,10.2
2019-05-18T00:45:24.878Z,10.3
2019-05-18T00:50:57.398Z,10.2
2019-05-18T00:56:29.981Z,10.2
2019-05-18T01:02:02.584Z,10.2
2019-05-18T01:07:35.083Z,10.2
2019-05-18T01:13:07.636Z,10.2
2019-05-18T01:18:40.177Z,10.1
2019-05-18T01:24:12.780Z,10
2019-05-18T01:29:45.315Z,10.1
2019-05-18T01:35:17.835Z,9.9
2019-05-18T01:40:50.682Z,9.8
2019-05-18T01:46:23.211Z,9.7
2019-05-18T01:51:55.718Z,9.8
2019-05-18T01:57:28.141Z,9.5
2019-05-18T02:03:00.644Z,9.6
2019-05-18T02:08:33.931Z,9.2
2019-05-18T02:14:07.257Z,9.2
2019-05-18T02:19:40.569Z,9.4
2019-05-18T02:25:14.147Z,9.4
2019-05-18T02:30:46.086Z,9.5
2019-05-18T02:36:18.574Z,9.5
2019-05-18T02:41:51.087Z,9.5
2019-05-18T02:47:23.534Z,9.6
2019-05-18T02:52:56.075Z,9.6
2019-05-18T02:58:28.582Z,9.7
2019-05-18T03:04:01.017Z,9.7
2019-05-18T03:09:33.540Z,9.8
2019-05-18T03:15:06.125Z,9.8
2019-05-18T03:20:38.510Z,9.8
2019-05-18T03:26:11.034Z,9.8
2019-05-18T03:31:43.601Z,9.8
2019-05-18T03:37:16.127Z,9.7
2019-05-18T03:42:48.503Z,9.8
2019-05-18T03:48:21.030Z,9.8
2019-05-18T03:53:53.575Z,9.7
2019-05-18T03:59:26.045Z,9.7
2019-05-18T04:04:58.528Z,9.6
2019-05-18T04:10:31.751Z,9.4
2019-05-18T04:16:05.082Z,9.4
2019-05-18T04:21:39.201Z,9.4
2019-05-18T04:27:10.817Z,9.6
2019-05-18T04:32:43.298Z,9.6
2019-05-18T04:38:15.902Z,9.6
2019-05-18T04:43:48.471Z,9.7
2019-05-18T04:49:20.979Z,9.8
2019-05-18T04:54:53.581Z,9.8
2019-05-18T05:00:26.186Z,10
2019-05-18T05:05:58.798Z,10.1
2019-05-18T05:11:31.381Z,10.2
2019-05-18T05:17:04.087Z,10.2
2019-05-18T05:22:36.800Z,10.2
2019-05-18T05:28:09.500Z,10.1
2019-05-18T05:33:42.116Z,10
2019-05-18T05:39:14.785Z,10.1
2019-05-18T05:44:48.014Z,10.1
2019-05-18T05:50:34.428Z,10.2
2019-05-18T05:55:55.110Z,10.4
2019-05-18T06:01:28.548Z,10.4
2019-05-18T06:07:02.213Z,10.4
2019-05-18T06:12:35.681Z,10.7
2019-05-18T06:18:08.892Z,10.8
2019-05-18T06:23:42.492Z,10.7
2019-05-18T06:29:16.184Z,10.7
2019-05-18T06:34:49.892Z,10.8
2019-05-18T06:40:23.612Z,10.8
2019-05-18T06:45:57.377Z,10.8
2019-05-18T06:51:31.104Z,11
2019-05-18T06:57:04.954Z,11.1
2019-05-18T07:02:38.885Z,11.3
2019-05-18T07:08:12.785Z,11.4
2019-05-18T07:13:46.710Z,11.4
2019-05-18T07:19:20.108Z,11.8
2019-05-18T07:24:53.375Z,11.7
2019-05-18T07:30:26.794Z,11.9
2019-05-18T07:36:00.632Z,12.2
2019-05-18T07:41:45.777Z,12.3
2019-05-18T07:47:07.812Z,12.1
2019-05-18T07:52:41.559Z,12.3
2019-05-18T07:58:15.578Z,12.2
2019-05-18T08:03:49.573Z,12.4
2019-05-18T08:09:23.787Z,12.3
2019-05-18T08:14:57.318Z,13.2
2019-05-18T08:20:32.239Z,12.9
2019-05-18T08:26:05.023Z,13
2019-05-18T08:31:38.865Z,13.4
2019-05-18T08:37:12.882Z,13.1
2019-05-18T08:42:47.384Z,13.4
2019-05-18T08:48:21.121Z,14.6
2019-05-18T08:53:55.140Z,14.4
2019-05-18T08:59:29.893Z,13.9
2019-05-18T09:05:05.039Z,14.6
2019-05-18T09:10:39.451Z,13.7
2019-05-18T09:16:13.880Z,14.6
2019-05-18T09:21:48.633Z,14.4
2019-05-18T09:27:23.515Z,14.7
2019-05-18T09:32:57.946Z,14.6
2019-05-18T09:38:33.474Z,14.6
2019-05-18T09:44:07.340Z,14.2
2019-05-18T09:49:42.379Z,14.6
2019-05-18T10:12:04.664Z,14.4
2019-05-18T10:28:50.904Z,14.5
2019-05-18T11:24:46.740Z,15.4
2019-05-18T11:30:21.959Z,15.3
2019-05-18T12:15:09.202Z,16
2019-05-18T13:05:30.248Z,16
2019-05-18T13:27:51.111Z,17.2
2019-05-18T13:33:25.429Z,17.5
2019-05-18T13:38:59.984Z,17.7
2019-05-18T13:55:45.643Z,17.2
2019-05-18T14:18:05.796Z,16.4
2019-05-18T14:23:39.807Z,17
2019-05-18T14:29:14.338Z,16.9
2019-05-18T14:34:49.223Z,16.6
2019-05-18T14:40:23.773Z,17.2
2019-05-18T14:45:58.526Z,17.1
2019-05-18T14:51:33.391Z,16.5
2019-05-18T14:57:08.113Z,16.5
2019-05-18T15:02:42.773Z,16.8
2019-05-18T15:08:16.844Z,16.9
2019-05-18T15:13:50.984Z,16.9
2019-05-18T15:19:24.895Z,16.7
2019-05-18T15:24:58.863Z,16.8
2019-05-18T15:30:32.836Z,17
2019-05-18T15:36:06.845Z,16.9
2019-05-18T15:41:40.956Z,16.6
2019-05-18T15:47:15.561Z,16.2
2019-05-18T15:52:49.886Z,16.7
2019-05-18T15:58:24.228Z,16.2
2019-05-18T16:09:34.516Z,16.1
2019-05-18T16:15:08.789Z,16.1
2019-05-18T16:20:42.742Z,16
2019-05-18T16:26:21.366Z,15.8
2019-05-18T16:31:51.212Z,15.9
2019-05-18T16:37:25.305Z,15.8
2019-05-18T16:42:59.847Z,15.9
2019-05-18T16:48:34.375Z,15.8
2019-05-18T16:54:08.765Z,15.8
2019-05-18T16:59:42.320Z,15.8
2019-05-18T17:05:15.916Z,15.7
2019-05-18T17:10:49.445Z,15.8
2019-05-18T17:16:22.975Z,15.7
2019-05-18T17:21:56.528Z,15.5
2019-05-18T17:27:30.557Z,15.4
2019-05-18T17:38:38.848Z,15.3
2019-05-18T17:44:12.804Z,15.3
2019-05-18T18:00:54.923Z,15
2019-05-18T18:06:28.395Z,14.9
2019-05-18T18:12:01.634Z,14.9
2019-05-18T18:17:34.864Z,14.7
2019-05-18T18:23:08.074Z,14.7
2019-05-18T18:28:41.237Z,14.1
2019-05-18T18:34:14.484Z,14.4
2019-05-18T18:39:47.596Z,14.3
2019-05-18T18:45:20.695Z,14.3
2019-05-18T18:50:53.850Z,14.2
2019-05-18T18:56:26.888Z,14.1
2019-05-18T19:02:00.667Z,13.8
2019-05-18T19:07:32.866Z,13.4
2019-05-18T19:13:05.984Z,13.2
2019-05-18T19:18:38.837Z,13.1
2019-05-18T19:24:11.790Z,13.1
2019-05-18T19:29:44.694Z,13.2
2019-05-18T19:35:17.824Z,12.8
2019-05-18T19:40:51.762Z,12.5
2019-05-18T19:46:24.630Z,13
2019-05-18T19:51:57.530Z,13.2
2019-05-18T19:57:30.449Z,13.3
2019-05-18T20:03:03.291Z,13.3
2019-05-18T20:08:36.266Z,13.4
2019-05-18T20:14:09.249Z,13.1
2019-05-18T20:19:42.136Z,13.2
2019-05-18T20:25:15.347Z,13.2
2019-05-18T20:30:48.319Z,12.9
2019-05-18T20:36:21.104Z,13.1
2019-05-18T20:41:54.043Z,13.1
2019-05-18T20:47:27.000Z,13
2019-05-18T20:52:59.784Z,13
2019-05-18T20:58:39.758Z,13.1
2019-05-18T21:04:05.632Z,13
2019-05-18T21:09:38.573Z,12.6
2019-05-18T21:15:04.861Z,12.7
2019-05-18T21:20:37.632Z,12.4
2019-05-18T21:26:03.119Z,11.8
2019-05-18T21:31:28.140Z,11.6
2019-05-18T21:37:00.867Z,11.3
2019-05-18T21:42:28.044Z,11.2
2019-05-18T21:48:00.746Z,11.2
2019-05-18T21:53:33.416Z,11.2
2019-05-18T21:59:11.465Z,11.4
2019-05-18T22:04:38.730Z,11.4
2019-05-18T22:10:24.723Z,11.6
2019-05-18T22:15:44.182Z,11.2
2019-05-18T22:21:16.833Z,11.3
2019-05-18T22:26:49.525Z,11.3
2019-05-18T22:32:22.528Z,11.2
2019-05-18T22:37:54.925Z,11.3
2019-05-18T22:43:27.611Z,11.3
2019-05-18T22:49:00.261Z,11.3
2019-05-18T22:54:32.993Z,11.3
2019-05-18T23:00:05.681Z,11.3
2019-05-18T23:05:38.313Z,11.4
2019-05-18T23:11:10.972Z,11.4
2019-05-18T23:16:43.668Z,11.6
2019-05-18T23:22:16.385Z,11.7
2019-05-18T23:27:49.054Z,11.6
2019-05-18T23:33:21.766Z,11.5
2019-05-18T23:38:54.533Z,11.5
2019-05-18T23:44:27.182Z,11.6
2019-05-18T23:49:59.976Z,11.4
2019-05-18T23:55:32.595Z,11.3
